Manfred, Arkansas
Current Conditions -  °F | °C
As of 8:53 PM on Friday 19 Dec 2014 (Local Time) from KMWT Reporting Station
Haze Haze  
Wind Chill: 42°   Ceiling: 400
Heat Index: 42°   Visibility: 5mi
Dew Point: 40°   Wind: 0mph
Humidity: 92%   Direction: NA
Pressure: 30.18"   Gusts: NA
Location:  34.4166°N, 93.6435°W
Report Text: KMWT 200253Z AUTO 00000KT 5SM BR OVC004 06/04 A3018 RMK AO2 SLP229 T00560044 51004
Loading
Personal Weather Stations






























Interactive Weather Map New forecast layout! Learn more

10-Day Weather Forecast

Advertisements
Track Severe Weather on mobile